METAR Data
IDs: Format: Raw Decoded Include TAF

Data at: 0117 UTC 16 Jan 2019

KSPS 160104Z 17007KT 10SM BKN029 09/06 A3016 RMK AO2 T00890056
KSPS 160052Z 16009KT 10SM OVC030 10/06 A3016 RMK AO2 SLP214 T01000061
KSPS 160024Z 18008KT 10SM OVC030 11/06 A3017 RMK AO2 T01060061
KSPS 152352Z 19007KT 10SM OVC029 11/06 A3016 RMK AO2 SLP215 T01110061 10122 20094 55001
KSPS 152342Z 21008KT 10SM OVC029 11/06 A3017 RMK AO2 T01110061
KSPS 152252Z 21011KT 10SM OVC029 12/06 A3016 RMK AO2 SLP214 T01170061
KSPS 152152Z 19010KT 10SM OVC029 12/06 A3016 RMK AO2 SLP216 T01170061
KSPS 152116Z 16007KT 10SM OVC028 12/06 A3016 RMK AO2 T01170061
KSPS 152052Z 19008KT 10SM OVC028 12/06 A3017 RMK AO2 SLP217 T01170061 56031
KSPS 152027Z 16008KT 10SM OVC029 11/06 A3017 RMK AO2 T01110061
KSPS 152009Z 18009KT 10SM OVC032 11/06 A3018 RMK AO2 T01110061
KSPS 151952Z 18007KT 10SM OVC032 11/06 A3019 RMK AO2 SLP227 T01110061
KSPS 151914Z 18006KT 10SM OVC031 11/06 A3020 RMK AO2 T01060056
KSPS 151852Z 17008KT 10SM OVC032 11/06 A3022 RMK AO2 SLP236 T01060056
KSPS 151752Z 17008KT 10SM OVC032 09/06 A3026 RMK AO2 SLP250 T00940056 10094 20033 58003
KSPS 151652Z 19006KT 10SM OVC033 08/06 A3029 RMK AO2 SLP259 T00830056
KSPS 151552Z 19006KT 10SM OVC034 08/06 A3029 RMK AO2 SLP259 T00780056
KSPS 151452Z 18004KT 10SM OVC037 06/05 A3027 RMK AO2 SLP254 T00610050 50004
KSPS 151352Z 18005KT 8SM OVC038 04/04 A3028 RMK AO2 SLP257 T00440039
KSPS 151252Z 17005KT 8SM OVC039 04/03 A3026 RMK AO2 SLP251 T00390033
KSPS 151152Z 00000KT 7SM OVC037 03/03 A3026 RMK AO2 SLP250 T00330028 10033 21006 56014
KSPS 151052Z 17005KT 7SM OVC037 03/02 A3026 RMK AO2 SLP250 T00280022
KSPS 150952Z AUTO 17005KT 7SM OVC037 02/01 A3028 RMK AO2 SLP258 T00170011
KSPS 150852Z AUTO 19008KT 6SM BR SCT037 00/M01 A3030 RMK AO2 SLP265 T00001006 55005
KSPS 150752Z AUTO 20008KT 7SM CLR M01/M01 A3030 RMK AO2 SLP264 T10061006
KSPS 150652Z AUTO 19010KT 7SM CLR 01/00 A3029 RMK AO2 SLP261 T00060000
KSPS 150552Z AUTO 16005KT 8SM CLR 00/M01 A3032 RMK AO2 SLP271 T00001006 10039 21006 400611006 58006
KSPS 150452Z AUTO 17005KT 9SM CLR 00/M01 A3033 RMK AO2 SLP278 T00001006
KSPS 150352Z AUTO 13005KT 10SM CLR 01/00 A3033 RMK AO2 SLP278 T00060000
KSPS 150252Z AUTO 11005KT 10SM CLR 01/00 A3033 RMK AO2 SLP278 T00110000 50002
KSPS 150152Z 10004KT 10SM CLR 02/01 A3034 RMK AO2 SLP281 T00170006
KSPS 150104Z 09004KT 10SM CLR 02/01 A3035 RMK AO2 T00220006
KSPS 150052Z 15006KT 10SM CLR 02/01 A3034 RMK AO2 SLP280 T00220006
KSPS 142352Z 13006KT 10SM CLR 04/01 A3033 RMK AO2 SLP274 T00390006 10061 20028 58012
KSPS 142318Z 17007KT 10SM CLR 06/01 A3033 RMK AO2 T00560006
KSPS 142252Z 17006KT 10SM CLR 06/01 A3035 RMK AO2 SLP281 T00610006
KSPS 142247Z 17005KT 10SM CLR 06/01 A3035 RMK AO2
KSPS 142152Z 18004KT 10SM CLR 06/00 A3035 RMK AO2 SLP280 T00610000
KSPS 142052Z 26003KT 10SM SCT020 06/M01 A3036 RMK AO2 SLP286 T00561006 56031
KSPS 142028Z VRB03KT 10SM SCT020 05/00 A3037 RMK AO2 T00500000
KSPS 141952Z VRB05KT 10SM BKN018 04/00 A3038 RMK AO2 SLP293 T00440000
KSPS 141852Z 22005KT 10SM BKN018 04/M01 A3042 RMK AO2 SLP305 T00441006
KSPS 141752Z VRB04KT 10SM OVC015 03/M01 A3046 RMK AO2 SLP319 T00331006 10033 20006 58002
KSPS 141741Z 31005KT 10SM OVC015 03/M01 A3047 RMK AO2 T00281011
KSPS 141652Z 23004KT 10SM OVC014 02/M01 A3049 RMK AO2 SLP330 T00171011
KSPS 141552Z 00000KT 8SM OVC013 01/M02 A3048 RMK AO2 SLP329 T00061017
KSPS 141452Z AUTO 23003KT 8SM OVC013 01/M02 A3046 RMK AO2 SLP322 T00061017 50000
KSPS 141352Z 02003KT 9SM OVC013 01/M02 A3047 RMK AO2 SLP324 T00061017